Shin Fuji Maru — JI3572 — position and weather

sailwx.info

Track history (hours):
 
Tides and Currents Weather Stations Pressure Air Temp Water Temp Dewpoint Dewpoint Depression Visibility Wind Speed Wind Dir Waves Ship Positions

Shin Fuji Maru

Last reported at 2018-Jan-11 14:43 UTC. Time now 2018-Jan-22 23:53 UTC.
Position N 34°24' E 138°57'.
Warning: this ship's position is 11 days out of date.

Length 27 m; draft 4.5 m.

Type: Cargo ship. MMSI: 431300208.

Date/timePositionNaut miles runAvg speedWind from/ knotsBaromVisibWave heightAir tempDewpointWater temp
2018-Jan-11 14:43N 34°24' E 138°57'1 4.9
2018-Jan-11 14:30N 34°25' E 138°58'3 4.8
2018-Jan-11 13:47N 34°28' E 138°59'2 4.5
2018-Jan-11 13:26N 34°30' E 138°59'13 5.5
2018-Jan-11 10:59N 34°43' E 139°04'20 6.3
2018-Jan-11 07:49N 34°59' E 139°18'4 6.2
2018-Jan-11 07:15N 35°01' E 139°22'2 6.3
2018-Jan-11 06:59N 35°01' E 139°24'3 6.0
2018-Jan-11 06:30N 35°02' E 139°27'3 6.2
2018-Jan-11 05:59N 35°03' E 139°30'3 6.1
2018-Jan-11 05:29N 35°04' E 139°34'3 5.5
2018-Jan-11 04:58N 35°05' E 139°37'3 5.5
2018-Jan-11 04:28N 35°06' E 139°40'2 5.3
2018-Jan-11 04:00N 35°07' E 139°43'3 5.5
2018-Jan-11 03:29N 35°10' E 139°44'1 2.9
2018-Jan-11 03:00N 35°11' E 139°44'2 4.1
2018-Jan-11 02:30N 35°12' E 139°46'3 5.1
2018-Jan-11 01:58N 35°15' E 139°46'4 7.8
2018-Jan-11 01:30N 35°18' E 139°44'4 7.8
2018-Jan-11 00:59N 35°22' E 139°42'4 7.8
2018-Jan-11 00:30N 35°26' E 139°43'2 4.0
2018-Jan-10 23:56N 35°27' E 139°41'0 0.0
2018-Jan-10 23:23N 35°27' E 139°41'0 0.0
2018-Jan-10 22:53N 35°27' E 139°41'0 0.0
2018-Jan-10 22:26N 35°27' E 139°41'0 0.0
2018-Jan-10 21:59N 35°27' E 139°41'0 0.0
2018-Jan-10 21:26N 35°27' E 139°41'0 0.0
2018-Jan-10 20:47N 35°27' E 139°41'0 0.0
2018-Jan-10 20:26N 35°27' E 139°41'0 0.0
2018-Jan-10 19:56N 35°27' E 139°41'0 0.0
2018-Jan-10 19:29N 35°27' E 139°41'0 0.0
2018-Jan-10 18:56N 35°27' E 139°41'0 0.0
2018-Jan-10 18:14N 35°27' E 139°41'0 0.0
2018-Jan-10 17:59N 35°27' E 139°41'0 0.0
2018-Jan-10 17:29N 35°27' E 139°41'0 0.0
2018-Jan-10 16:59N 35°27' E 139°41'0 0.0
2018-Jan-10 16:29N 35°27' E 139°41'0 0.0
2018-Jan-10 15:56N 35°27' E 139°41'0 0.0
2018-Jan-10 15:26N 35°27' E 139°41'0 0.0
2018-Jan-10 14:56N 35°27' E 139°41'0 0.0
2018-Jan-10 14:26N 35°27' E 139°41'0 0.0
2018-Jan-10 13:56N 35°27' E 139°41'0 0.0
2018-Jan-10 13:26N 35°27' E 139°41'0 0.0
2018-Jan-10 12:53N 35°27' E 139°41'0 0.0
2018-Jan-10 12:26N 35°27' E 139°41'0 0.0
2018-Jan-10 11:53N 35°27' E 139°41'0 0.0
2018-Jan-10 11:26N 35°27' E 139°41'0 0.0
2018-Jan-10 10:59N 35°27' E 139°41'0 0.0
2018-Jan-10 10:29N 35°27' E 139°41'0 0.0
2018-Jan-10 09:56N 35°27' E 139°41'0 0.0
2018-Jan-10 09:17N 35°27' E 139°41'0 0.0
2018-Jan-10 08:56N 35°27' E 139°41'0 0.0
2018-Jan-10 08:29N 35°27' E 139°41'0 0.0
2018-Jan-10 07:56N 35°27' E 139°41'0 0.0
2018-Jan-10 07:26N 35°27' E 139°41'0 0.0
2018-Jan-10 06:59N 35°27' E 139°41'0 0.0
2018-Jan-10 06:26N 35°27' E 139°41'0 0.0
2018-Jan-10 05:56N 35°27' E 139°41'0 0.0
2018-Jan-10 05:26N 35°27' E 139°41'0 0.0
2018-Jan-10 04:56N 35°27' E 139°41'0 0.0
2018-Jan-10 04:29N 35°27' E 139°41'0 0.0
2018-Jan-10 03:53N 35°27' E 139°41'0 0.0
2018-Jan-10 03:29N 35°27' E 139°41'0 0.0
2018-Jan-10 02:56N 35°27' E 139°41'0 0.0
2018-Jan-10 02:29N 35°27' E 139°41'0 0.0
2018-Jan-10 01:56N 35°27' E 139°41'0 0.0
2018-Jan-10 01:23N 35°27' E 139°41'0 0.0
2018-Jan-10 00:56N 35°27' E 139°41'0 0.0
2018-Jan-10 00:29N 35°27' E 139°41'0 0.0
2018-Jan-09 23:59N 35°27' E 139°41'0 0.0
2018-Jan-09 23:29N 35°27' E 139°41'0 0.0
2018-Jan-09 22:59N 35°27' E 139°41'0 0.0
2018-Jan-09 22:26N 35°27' E 139°41'0 0.0
2018-Jan-09 21:59N 35°27' E 139°41'0 0.0
2018-Jan-09 21:26N 35°27' E 139°41'0 0.0
2018-Jan-09 20:59N 35°27' E 139°41'0 0.0
2018-Jan-09 20:29N 35°27' E 139°41'0 0.0
2018-Jan-09 19:59N 35°27' E 139°41'0 0.0
2018-Jan-09 19:29N 35°27' E 139°41'0 0.0
2018-Jan-09 18:50N 35°27' E 139°41'0 0.0
2018-Jan-09 18:29N 35°27' E 139°41'0 0.0
2018-Jan-09 17:59N 35°27' E 139°41'0 0.0
2018-Jan-09 17:29N 35°27' E 139°41'0 0.0
2018-Jan-09 16:59N 35°27' E 139°41'0 0.0
2018-Jan-09 16:29N 35°27' E 139°41'0 0.0
2018-Jan-09 15:56N 35°27' E 139°41'0 0.0
2018-Jan-09 15:29N 35°27' E 139°41'0 0.0
2018-Jan-09 14:59N 35°27' E 139°41'0 0.0
2018-Jan-09 14:29N 35°27' E 139°41'0 0.0
2018-Jan-09 13:59N 35°27' E 139°41'0 0.0
2018-Jan-09 13:29N 35°27' E 139°41'0 0.0
2018-Jan-09 12:59N 35°27' E 139°41'0 0.0
2018-Jan-09 12:29N 35°27' E 139°41'0 0.0
2018-Jan-09 11:53N 35°27' E 139°41'0 0.0
2018-Jan-09 11:23N 35°27' E 139°41'0 0.0
2018-Jan-09 10:59N 35°27' E 139°41'0 0.0
2018-Jan-09 10:29N 35°27' E 139°41'0 0.0
2018-Jan-09 09:59N 35°27' E 139°41'0 0.0
2018-Jan-09 09:29N 35°27' E 139°41'0 0.0
2018-Jan-09 08:59N 35°27' E 139°41'0 0.0
2018-Jan-09 08:29N 35°27' E 139°41'0 0.0
2018-Jan-09 07:53N 35°27' E 139°41'0 0.0
2018-Jan-09 07:26N 35°27' E 139°41'0 0.0
2018-Jan-09 06:56N 35°27' E 139°41'0 0.0
2018-Jan-09 06:29N 35°27' E 139°41'0 0.0
2018-Jan-09 05:59N 35°27' E 139°41'0 0.0
2018-Jan-09 05:29N 35°27' E 139°41'0 0.0
2018-Jan-09 04:56N 35°27' E 139°41'0 0.0
2018-Jan-09 04:29N 35°27' E 139°41'0 0.0
2018-Jan-09 03:56N 35°27' E 139°41'0 0.0
2018-Jan-09 03:29N 35°27' E 139°41'0 0.0
2018-Jan-09 02:53N 35°27' E 139°41'0 0.0
2018-Jan-09 02:29N 35°27' E 139°41'0 0.0
2018-Jan-09 01:59N 35°27' E 139°41'0 0.0
2018-Jan-09 01:26N 35°27' E 139°41'0 0.0
2018-Jan-09 00:56N 35°27' E 139°41'0 0.0
2018-Jan-09 00:29N 35°27' E 139°41'0 0.0
2018-Jan-08 23:56N 35°27' E 139°41'0 0.0
2018-Jan-08 23:29N 35°27' E 139°41'0 0.0
2018-Jan-08 22:59N 35°27' E 139°41'0 0.0
2018-Jan-08 22:29N 35°27' E 139°41'0 0.0
2018-Jan-08 21:59N 35°27' E 139°41'0 0.0
2018-Jan-08 21:29N 35°27' E 139°41'0 0.0
2018-Jan-08 20:53N 35°27' E 139°41'0 0.0
2018-Jan-08 20:23N 35°27' E 139°41'0 0.0
2018-Jan-08 19:59N 35°27' E 139°41'0 0.0
2018-Jan-08 19:29N 35°27' E 139°41'0 0.0
2018-Jan-08 18:59N 35°27' E 139°41'0 0.0
2018-Jan-08 18:29N 35°27' E 139°41'0 0.0
2018-Jan-08 17:53N 35°27' E 139°41'0 0.0
2018-Jan-08 17:29N 35°27' E 139°41'0 0.0
2018-Jan-08 16:59N 35°27' E 139°41'0 0.0
2018-Jan-08 16:29N 35°27' E 139°41'0 0.0
2018-Jan-08 15:59N 35°27' E 139°41'0 0.0
2018-Jan-08 15:29N 35°27' E 139°41'0 0.0
2018-Jan-08 14:53N 35°27' E 139°41'0 0.0
2018-Jan-08 14:29N 35°27' E 139°41'0 0.0
2018-Jan-08 13:53N 35°27' E 139°41'0 0.0
2018-Jan-08 13:26N 35°27' E 139°41'0 0.0
2018-Jan-08 12:59N 35°27' E 139°41'0 0.0
2018-Jan-08 12:23N 35°27' E 139°41'0 0.0
2018-Jan-08 11:59N 35°27' E 139°41'0 0.0
2018-Jan-08 11:29N 35°27' E 139°41'0 0.0
2018-Jan-08 10:56N 35°27' E 139°41'0 0.0
2018-Jan-08 10:29N 35°27' E 139°41'0 0.0
2018-Jan-08 09:59N 35°27' E 139°41'0 0.0
2018-Jan-08 09:29N 35°27' E 139°41'0 0.0
2018-Jan-08 08:47N 35°27' E 139°41'0 0.0
2018-Jan-08 08:29N 35°27' E 139°41'0 0.0
2018-Jan-08 07:59N 35°27' E 139°41'0 0.0
2018-Jan-08 07:23N 35°27' E 139°41'0 0.0
2018-Jan-08 06:59N 35°27' E 139°41'0 0.0
2018-Jan-08 06:29N 35°27' E 139°41'0 0.0
2018-Jan-08 05:56N 35°27' E 139°41'0 0.0
2018-Jan-08 05:26N 35°27' E 139°41'0 0.0
2018-Jan-08 04:59N 35°27' E 139°41'0 0.0
2018-Jan-08 04:29N 35°27' E 139°41'0 0.0
2018-Jan-08 03:59N 35°27' E 139°41'0 0.0
2018-Jan-08 03:26N 35°27' E 139°41'0 0.0
2018-Jan-08 02:59N 35°27' E 139°41'0 0.0
2018-Jan-08 02:26N 35°27' E 139°41'0 0.0
2018-Jan-08 01:59N 35°27' E 139°41'0 0.0
2018-Jan-08 01:29N 35°27' E 139°41'0 0.0
2018-Jan-08 00:59N 35°27' E 139°41'0 0.0
2018-Jan-08 00:26N 35°27' E 139°41'0 0.0
2018-Jan-07 23:59N 35°27' E 139°41'0 0.0
2018-Jan-07 23:26N 35°27' E 139°41'0 0.0
2018-Jan-07 22:56N 35°27' E 139°41'0 0.0
2018-Jan-07 22:29N 35°27' E 139°41'0 0.0
2018-Jan-07 21:59N 35°27' E 139°41'0 0.0
2018-Jan-07 21:29N 35°27' E 139°41'0 0.0
2018-Jan-07 20:59N 35°27' E 139°41'0 0.0
2018-Jan-07 20:26N 35°27' E 139°41'0 0.0
2018-Jan-07 19:59N 35°27' E 139°41'0 0.0
2018-Jan-07 19:29N 35°27' E 139°41'0 0.0
2018-Jan-07 18:59N 35°27' E 139°41'0 0.0
2018-Jan-07 18:29N 35°27' E 139°41'0 0.0
2018-Jan-07 17:56N 35°27' E 139°41'0 0.0
2018-Jan-07 17:29N 35°27' E 139°41'0 0.0
2018-Jan-07 16:59N 35°27' E 139°41'0 0.0
2018-Jan-07 16:26N 35°27' E 139°41'0 0.0
2018-Jan-07 15:53N 35°27' E 139°41'0 0.0
2018-Jan-07 15:29N 35°27' E 139°41'0 0.0
2018-Jan-07 14:59N 35°27' E 139°41'0 0.0
2018-Jan-07 14:29N 35°27' E 139°41'0 0.0
2018-Jan-07 13:59N 35°27' E 139°41'0 0.0
2018-Jan-07 13:26N 35°27' E 139°41'0 0.0
2018-Jan-07 12:59N 35°27' E 139°41'0 0.0
2018-Jan-07 12:29N 35°27' E 139°41'0 0.0
2018-Jan-07 11:59N 35°27' E 139°41'0 0.0
2018-Jan-07 11:29N 35°27' E 139°41'0 0.0
2018-Jan-07 10:59N 35°27' E 139°41'0 0.0
2018-Jan-07 10:26N 35°27' E 139°41'0 0.0
2018-Jan-07 09:59N 35°27' E 139°41'0 0.0
2018-Jan-07 09:23N 35°27' E 139°41'0 0.0
2018-Jan-07 08:59N 35°27' E 139°41'0 0.0
2018-Jan-07 08:29N 35°27' E 139°41'0 0.0
2018-Jan-07 07:59N 35°27' E 139°41'0 0.0
2018-Jan-07 07:23N 35°27' E 139°41'0 0.0
2018-Jan-07 06:59N 35°27' E 139°41'0 0.0
2018-Jan-07 06:29N 35°27' E 139°41'0 0.0
2018-Jan-07 05:59N 35°27' E 139°41'0 0.0
2018-Jan-07 05:29N 35°27' E 139°41'0 0.0
2018-Jan-07 04:59N 35°27' E 139°41'0 0.0
2018-Jan-07 04:29N 35°27' E 139°41'0 0.0
2018-Jan-07 03:54N 35°27' E 139°41'  
Track history (hours):
 
Tides and Currents Weather Stations Pressure Air Temp Water Temp Dewpoint Dewpoint Depression Visibility Wind Speed Wind Dir Waves Ship Positions

Shin Fuji Maru

Last reported at 2018-Jan-11 14:43 UTC. Time now 2018-Jan-22 23:53 UTC.
Position N 34°24' E 138°57'.
Warning: this ship's position is 11 days out of date.

Length 27 m; draft 4.5 m.

Type: Cargo ship. MMSI: 431300208.

Date/timePositionNaut miles runAvg speedWind from/ knotsBaromVisibWave heightAir tempDewpointWater temp
2018-Jan-11 14:43N 34°24' E 138°57'1 4.9
2018-Jan-11 14:30N 34°25' E 138°58'3 4.8
2018-Jan-11 13:47N 34°28' E 138°59'2 4.5
2018-Jan-11 13:26N 34°30' E 138°59'13 5.5
2018-Jan-11 10:59N 34°43' E 139°04'20 6.3
2018-Jan-11 07:49N 34°59' E 139°18'4 6.2
2018-Jan-11 07:15N 35°01' E 139°22'2 6.3
2018-Jan-11 06:59N 35°01' E 139°24'3 6.0
2018-Jan-11 06:30N 35°02' E 139°27'3 6.2
2018-Jan-11 05:59N 35°03' E 139°30'3 6.1
2018-Jan-11 05:29N 35°04' E 139°34'3 5.5
2018-Jan-11 04:58N 35°05' E 139°37'3 5.5
2018-Jan-11 04:28N 35°06' E 139°40'2 5.3
2018-Jan-11 04:00N 35°07' E 139°43'3 5.5
2018-Jan-11 03:29N 35°10' E 139°44'1 2.9
2018-Jan-11 03:00N 35°11' E 139°44'2 4.1
2018-Jan-11 02:30N 35°12' E 139°46'3 5.1
2018-Jan-11 01:58N 35°15' E 139°46'4 7.8
2018-Jan-11 01:30N 35°18' E 139°44'4 7.8
2018-Jan-11 00:59N 35°22' E 139°42'4 7.8
2018-Jan-11 00:30N 35°26' E 139°43'2 4.0
2018-Jan-10 23:56N 35°27' E 139°41'0 0.0
2018-Jan-10 23:23N 35°27' E 139°41'0 0.0
2018-Jan-10 22:53N 35°27' E 139°41'0 0.0
2018-Jan-10 22:26N 35°27' E 139°41'0 0.0
2018-Jan-10 21:59N 35°27' E 139°41'0 0.0
2018-Jan-10 21:26N 35°27' E 139°41'0 0.0
2018-Jan-10 20:47N 35°27' E 139°41'0 0.0
2018-Jan-10 20:26N 35°27' E 139°41'0 0.0
2018-Jan-10 19:56N 35°27' E 139°41'0 0.0
2018-Jan-10 19:29N 35°27' E 139°41'0 0.0
2018-Jan-10 18:56N 35°27' E 139°41'0 0.0
2018-Jan-10 18:14N 35°27' E 139°41'0 0.0
2018-Jan-10 17:59N 35°27' E 139°41'0 0.0
2018-Jan-10 17:29N 35°27' E 139°41'0 0.0
2018-Jan-10 16:59N 35°27' E 139°41'0 0.0
2018-Jan-10 16:29N 35°27' E 139°41'0 0.0
2018-Jan-10 15:56N 35°27' E 139°41'0 0.0
2018-Jan-10 15:26N 35°27' E 139°41'0 0.0
2018-Jan-10 14:56N 35°27' E 139°41'0 0.0
2018-Jan-10 14:26N 35°27' E 139°41'0 0.0
2018-Jan-10 13:56N 35°27' E 139°41'0 0.0
2018-Jan-10 13:26N 35°27' E 139°41'0 0.0
2018-Jan-10 12:53N 35°27' E 139°41'0 0.0
2018-Jan-10 12:26N 35°27' E 139°41'0 0.0
2018-Jan-10 11:53N 35°27' E 139°41'0 0.0
2018-Jan-10 11:26N 35°27' E 139°41'0 0.0
2018-Jan-10 10:59N 35°27' E 139°41'0 0.0
2018-Jan-10 10:29N 35°27' E 139°41'0 0.0
2018-Jan-10 09:56N 35°27' E 139°41'0 0.0
2018-Jan-10 09:17N 35°27' E 139°41'0 0.0
2018-Jan-10 08:56N 35°27' E 139°41'0 0.0
2018-Jan-10 08:29N 35°27' E 139°41'0 0.0
2018-Jan-10 07:56N 35°27' E 139°41'0 0.0
2018-Jan-10 07:26N 35°27' E 139°41'0 0.0
2018-Jan-10 06:59N 35°27' E 139°41'0 0.0
2018-Jan-10 06:26N 35°27' E 139°41'0 0.0
2018-Jan-10 05:56N 35°27' E 139°41'0 0.0
2018-Jan-10 05:26N 35°27' E 139°41'0 0.0
2018-Jan-10 04:56N 35°27' E 139°41'0 0.0
2018-Jan-10 04:29N 35°27' E 139°41'0 0.0
2018-Jan-10 03:53N 35°27' E 139°41'0 0.0
2018-Jan-10 03:29N 35°27' E 139°41'0 0.0
2018-Jan-10 02:56N 35°27' E 139°41'0 0.0
2018-Jan-10 02:29N 35°27' E 139°41'0 0.0
2018-Jan-10 01:56N 35°27' E 139°41'0 0.0
2018-Jan-10 01:23N 35°27' E 139°41'0 0.0
2018-Jan-10 00:56N 35°27' E 139°41'0 0.0
2018-Jan-10 00:29N 35°27' E 139°41'0 0.0
2018-Jan-09 23:59N 35°27' E 139°41'0 0.0
2018-Jan-09 23:29N 35°27' E 139°41'0 0.0
2018-Jan-09 22:59N 35°27' E 139°41'0 0.0
2018-Jan-09 22:26N 35°27' E 139°41'0 0.0
2018-Jan-09 21:59N 35°27' E 139°41'0 0.0
2018-Jan-09 21:26N 35°27' E 139°41'0 0.0
2018-Jan-09 20:59N 35°27' E 139°41'0 0.0
2018-Jan-09 20:29N 35°27' E 139°41'0 0.0
2018-Jan-09 19:59N 35°27' E 139°41'0 0.0
2018-Jan-09 19:29N 35°27' E 139°41'0 0.0
2018-Jan-09 18:50N 35°27' E 139°41'0 0.0
2018-Jan-09 18:29N 35°27' E 139°41'0 0.0
2018-Jan-09 17:59N 35°27' E 139°41'0 0.0
2018-Jan-09 17:29N 35°27' E 139°41'0 0.0
2018-Jan-09 16:59N 35°27' E 139°41'0 0.0
2018-Jan-09 16:29N 35°27' E 139°41'0 0.0
2018-Jan-09 15:56N 35°27' E 139°41'0 0.0
2018-Jan-09 15:29N 35°27' E 139°41'0 0.0
2018-Jan-09 14:59N 35°27' E 139°41'0 0.0
2018-Jan-09 14:29N 35°27' E 139°41'0 0.0
2018-Jan-09 13:59N 35°27' E 139°41'0 0.0
2018-Jan-09 13:29N 35°27' E 139°41'0 0.0
2018-Jan-09 12:59N 35°27' E 139°41'0 0.0
2018-Jan-09 12:29N 35°27' E 139°41'0 0.0
2018-Jan-09 11:53N 35°27' E 139°41'0 0.0
2018-Jan-09 11:23N 35°27' E 139°41'0 0.0
2018-Jan-09 10:59N 35°27' E 139°41'0 0.0
2018-Jan-09 10:29N 35°27' E 139°41'0 0.0
2018-Jan-09 09:59N 35°27' E 139°41'0 0.0
2018-Jan-09 09:29N 35°27' E 139°41'0 0.0
2018-Jan-09 08:59N 35°27' E 139°41'0 0.0
2018-Jan-09 08:29N 35°27' E 139°41'0 0.0
2018-Jan-09 07:53N 35°27' E 139°41'0 0.0
2018-Jan-09 07:26N 35°27' E 139°41'0 0.0
2018-Jan-09 06:56N 35°27' E 139°41'0 0.0
2018-Jan-09 06:29N 35°27' E 139°41'0 0.0
2018-Jan-09 05:59N 35°27' E 139°41'0 0.0
2018-Jan-09 05:29N 35°27' E 139°41'0 0.0
2018-Jan-09 04:56N 35°27' E 139°41'0 0.0
2018-Jan-09 04:29N 35°27' E 139°41'0 0.0
2018-Jan-09 03:56N 35°27' E 139°41'0 0.0
2018-Jan-09 03:29N 35°27' E 139°41'0 0.0
2018-Jan-09 02:53N 35°27' E 139°41'0 0.0
2018-Jan-09 02:29N 35°27' E 139°41'0 0.0
2018-Jan-09 01:59N 35°27' E 139°41'0 0.0
2018-Jan-09 01:26N 35°27' E 139°41'0 0.0
2018-Jan-09 00:56N 35°27' E 139°41'0 0.0
2018-Jan-09 00:29N 35°27' E 139°41'0 0.0
2018-Jan-08 23:56N 35°27' E 139°41'0 0.0
2018-Jan-08 23:29N 35°27' E 139°41'0 0.0
2018-Jan-08 22:59N 35°27' E 139°41'0 0.0
2018-Jan-08 22:29N 35°27' E 139°41'0 0.0
2018-Jan-08 21:59N 35°27' E 139°41'0 0.0
2018-Jan-08 21:29N 35°27' E 139°41'0 0.0
2018-Jan-08 20:53N 35°27' E 139°41'0 0.0
2018-Jan-08 20:23N 35°27' E 139°41'0 0.0
2018-Jan-08 19:59N 35°27' E 139°41'0 0.0
2018-Jan-08 19:29N 35°27' E 139°41'0 0.0
2018-Jan-08 18:59N 35°27' E 139°41'0 0.0
2018-Jan-08 18:29N 35°27' E 139°41'0 0.0
2018-Jan-08 17:53N 35°27' E 139°41'0 0.0
2018-Jan-08 17:29N 35°27' E 139°41'0 0.0
2018-Jan-08 16:59N 35°27' E 139°41'0 0.0
2018-Jan-08 16:29N 35°27' E 139°41'0 0.0
2018-Jan-08 15:59N 35°27' E 139°41'0 0.0
2018-Jan-08 15:29N 35°27' E 139°41'0 0.0
2018-Jan-08 14:53N 35°27' E 139°41'0 0.0
2018-Jan-08 14:29N 35°27' E 139°41'0 0.0
2018-Jan-08 13:53N 35°27' E 139°41'0 0.0
2018-Jan-08 13:26N 35°27' E 139°41'0 0.0
2018-Jan-08 12:59N 35°27' E 139°41'0 0.0
2018-Jan-08 12:23N 35°27' E 139°41'0 0.0
2018-Jan-08 11:59N 35°27' E 139°41'0 0.0
2018-Jan-08 11:29N 35°27' E 139°41'0 0.0
2018-Jan-08 10:56N 35°27' E 139°41'0 0.0
2018-Jan-08 10:29N 35°27' E 139°41'0 0.0
2018-Jan-08 09:59N 35°27' E 139°41'0 0.0
2018-Jan-08 09:29N 35°27' E 139°41'0 0.0
2018-Jan-08 08:47N 35°27' E 139°41'0 0.0
2018-Jan-08 08:29N 35°27' E 139°41'0 0.0
2018-Jan-08 07:59N 35°27' E 139°41'0 0.0
2018-Jan-08 07:23N 35°27' E 139°41'0 0.0
2018-Jan-08 06:59N 35°27' E 139°41'0 0.0
2018-Jan-08 06:29N 35°27' E 139°41'0 0.0
2018-Jan-08 05:56N 35°27' E 139°41'0 0.0
2018-Jan-08 05:26N 35°27' E 139°41'0 0.0
2018-Jan-08 04:59N 35°27' E 139°41'0 0.0
2018-Jan-08 04:29N 35°27' E 139°41'0 0.0
2018-Jan-08 03:59N 35°27' E 139°41'0 0.0
2018-Jan-08 03:26N 35°27' E 139°41'0 0.0
2018-Jan-08 02:59N 35°27' E 139°41'0 0.0
2018-Jan-08 02:26N 35°27' E 139°41'0 0.0
2018-Jan-08 01:59N 35°27' E 139°41'0 0.0
2018-Jan-08 01:29N 35°27' E 139°41'0 0.0
2018-Jan-08 00:59N 35°27' E 139°41'0 0.0
2018-Jan-08 00:26N 35°27' E 139°41'0 0.0
2018-Jan-07 23:59N 35°27' E 139°41'0 0.0
2018-Jan-07 23:26N 35°27' E 139°41'0 0.0
2018-Jan-07 22:56N 35°27' E 139°41'0 0.0
2018-Jan-07 22:29N 35°27' E 139°41'0 0.0
2018-Jan-07 21:59N 35°27' E 139°41'0 0.0
2018-Jan-07 21:29N 35°27' E 139°41'0 0.0
2018-Jan-07 20:59N 35°27' E 139°41'0 0.0
2018-Jan-07 20:26N 35°27' E 139°41'0 0.0
2018-Jan-07 19:59N 35°27' E 139°41'0 0.0
2018-Jan-07 19:29N 35°27' E 139°41'0 0.0
2018-Jan-07 18:59N 35°27' E 139°41'0 0.0
2018-Jan-07 18:29N 35°27' E 139°41'0 0.0
2018-Jan-07 17:56N 35°27' E 139°41'0 0.0
2018-Jan-07 17:29N 35°27' E 139°41'0 0.0
2018-Jan-07 16:59N 35°27' E 139°41'0 0.0
2018-Jan-07 16:26N 35°27' E 139°41'0 0.0
2018-Jan-07 15:53N 35°27' E 139°41'0 0.0
2018-Jan-07 15:29N 35°27' E 139°41'0 0.0
2018-Jan-07 14:59N 35°27' E 139°41'0 0.0
2018-Jan-07 14:29N 35°27' E 139°41'0 0.0
2018-Jan-07 13:59N 35°27' E 139°41'0 0.0
2018-Jan-07 13:26N 35°27' E 139°41'0 0.0
2018-Jan-07 12:59N 35°27' E 139°41'0 0.0
2018-Jan-07 12:29N 35°27' E 139°41'0 0.0
2018-Jan-07 11:59N 35°27' E 139°41'0 0.0
2018-Jan-07 11:29N 35°27' E 139°41'0 0.0
2018-Jan-07 10:59N 35°27' E 139°41'0 0.0
2018-Jan-07 10:26N 35°27' E 139°41'0 0.0
2018-Jan-07 09:59N 35°27' E 139°41'0 0.0
2018-Jan-07 09:23N 35°27' E 139°41'0 0.0
2018-Jan-07 08:59N 35°27' E 139°41'0 0.0
2018-Jan-07 08:29N 35°27' E 139°41'0 0.0
2018-Jan-07 07:59N 35°27' E 139°41'0 0.0
2018-Jan-07 07:23N 35°27' E 139°41'0 0.0
2018-Jan-07 06:59N 35°27' E 139°41'0 0.0
2018-Jan-07 06:29N 35°27' E 139°41'0 0.0
2018-Jan-07 05:59N 35°27' E 139°41'0 0.0
2018-Jan-07 05:29N 35°27' E 139°41'0 0.0
2018-Jan-07 04:59N 35°27' E 139°41'0 0.0
2018-Jan-07 04:29N 35°27' E 139°41'0 0.0
2018-Jan-07 03:54N 35°27' E 139°41'  

Dump ship's entire track history